Time;durP1;ratioP1;P1;durP2;ratioP2;P2;SDS_P1;SDS_P2;PMS_P1;PMS_P2;Temp;Humidity;BMP_temperature;BMP_pressure;BME280_temperature;BME280_humidity;BME280_pressure;Samples;Min_cycle;Max_cycle;Signal;HPM_P1;HPM_P2
2022/11/21 00:02:14;;;;;;;3.23;2.70;;;;;;;15.33;87.34;93375.91;5034018;28;20199;-81
2022/11/21 00:04:41;;;;;;;3.50;2.93;;;;;;;15.31;87.14;93370.94;5033630;28;20184;-80
2022/11/21 00:07:07;;;;;;;4.10;3.33;;;;;;;15.31;87.01;93370.94;5033156;28;20575;-81
2022/11/21 00:09:35;;;;;;;4.13;3.73;;;;;;;15.30;87.09;93353.13;5032692;28;20212;-82
2022/11/21 00:12:02;;;;;;;5.23;3.00;;;;;;;15.23;86.87;93344.59;5033927;28;20207;-81
2022/11/21 00:14:29;;;;;;;3.83;2.67;;;;;;;15.25;86.66;93342.63;5041939;28;20191;-79
2022/11/21 00:16:56;;;;;;;4.07;3.03;;;;;;;15.23;86.59;93329.94;5046613;28;20183;-78
2022/11/21 00:19:24;;;;;;;3.40;3.10;;;;;;;15.24;86.58;93336.69;5045279;28;20568;-79
2022/11/21 00:21:51;;;;;;;3.77;2.47;;;;;;;15.25;86.59;93345.19;5043437;28;20191;-80
2022/11/21 00:24:17;;;;;;;3.43;2.97;;;;;;;15.20;86.45;93324.41;5034236;28;20595;-79
2022/11/21 00:26:44;;;;;;;3.00;2.80;;;;;;;15.24;86.34;93336.69;5034036;28;20191;-80
2022/11/21 00:29:11;;;;;;;5.33;2.73;;;;;;;15.24;86.07;93336.69;5013936;28;20193;-83
2022/11/21 00:31:38;;;;;;;3.00;2.77;;;;;;;15.23;86.17;93321.41;5013543;28;20187;-82
2022/11/21 00:34:05;;;;;;;3.67;2.73;;;;;;;15.22;85.92;93314.69;5013147;28;20196;-80
2022/11/21 00:36:33;;;;;;;5.37;3.23;;;;;;;15.21;85.92;93326.00;5012889;28;20644;-81
2022/11/21 00:39:00;;;;;;;3.57;3.27;;;;;;;15.22;86.03;93312.13;5013561;28;20199;-81
2022/11/21 00:41:26;;;;;;;3.43;3.13;;;;;;;15.21;86.02;93302.81;5013098;28;20567;-80
2022/11/21 00:43:53;;;;;;;4.20;3.17;;;;;;;15.19;85.78;93318.44;5012995;28;20188;-81
2022/11/21 00:46:20;;;;;;;4.80;3.60;;;;;;;15.17;85.94;93315.28;5013390;28;20189;-81
2022/11/21 00:48:47;;;;;;;3.43;3.10;;;;;;;15.12;85.82;93301.44;5032298;28;20187;-79
2022/11/21 00:51:13;;;;;;;4.23;3.67;;;;;;;15.17;85.69;93309.34;5037334;28;20216;-79
2022/11/21 00:53:42;;;;;;;4.70;3.00;;;;;;;15.17;85.68;93286.19;5015457;28;20196;-80
2022/11/21 00:56:09;;;;;;;5.50;3.37;;;;;;;15.16;85.56;93290.53;5012296;28;20624;-79
2022/11/21 00:58:36;;;;;;;4.80;3.77;;;;;;;15.05;85.55;93266.19;5015094;28;20204;-81
2022/11/21 01:01:05;;;;;;;3.80;3.20;;;;;;;15.12;85.54;93302.22;5028516;28;20196;-82
2022/11/21 01:03:33;;;;;;;4.70;3.70;;;;;;;14.98;85.50;93262.03;5014115;28;20200;-81
2022/11/21 01:06:01;;;;;;;4.40;3.17;;;;;;;15.01;85.44;93266.78;5024163;28;20185;-78
2022/11/21 01:08:28;;;;;;;3.97;3.53;;;;;;;14.97;85.44;93258.66;5026120;28;20195;-81
2022/11/21 01:10:56;;;;;;;4.03;3.27;;;;;;;15.03;85.37;93275.09;5012861;28;20213;-80
2022/11/21 01:13:23;;;;;;;3.53;2.93;;;;;;;15.02;85.38;93252.91;5012529;28;20185;-81
2022/11/21 01:15:50;;;;;;;3.10;2.80;;;;;;;14.95;85.22;93257.28;5012425;28;20188;-79
2022/11/21 01:18:17;;;;;;;3.17;2.70;;;;;;;15.01;85.14;93284.78;5012588;28;20189;-78
2022/11/21 01:20:44;;;;;;;3.00;2.80;;;;;;;15.01;85.02;93287.38;5019962;28;20582;-80
2022/11/21 01:23:11;;;;;;;3.47;3.17;;;;;;;15.00;84.90;93284.00;5031868;28;20195;-79
2022/11/21 01:25:37;;;;;;;4.10;2.60;;;;;;;14.98;84.95;93278.28;5041122;28;20227;-80
2022/11/21 01:28:06;;;;;;;5.77;3.00;;;;;;;14.93;84.93;93283.22;5043339;28;20194;-79
2022/11/21 01:30:32;;;;;;;5.03;3.00;;;;;;;14.92;85.04;93291.13;5035978;28;20227;-79
2022/11/21 01:32:59;;;;;;;2.87;2.67;;;;;;;14.84;84.86;93279.25;5032668;28;20278;-80
2022/11/21 01:35:26;;;;;;;4.57;3.53;;;;;;;14.93;84.75;93264.41;5031013;28;20203;-81
2022/11/21 01:37:53;;;;;;;6.10;3.70;;;;;;;14.94;84.67;93294.28;5031553;28;20202;-81
2022/11/21 01:40:20;;;;;;;4.70;3.63;;;;;;;14.92;84.90;93266.19;5031676;28;20199;-80
2022/11/21 01:42:53;;;;;;;4.43;3.57;;;;;;;14.86;84.62;93236.13;5031578;28;20200;-80
2022/11/21 01:45:54;;;;;;;4.50;3.60;;;;;;;14.92;84.74;93267.97;5029925;28;20242;-81
2022/11/21 01:48:26;;;;;;;4.07;3.67;;;;;;;14.90;84.55;93278.47;5031329;28;20272;-81
2022/11/21 01:50:53;;;;;;;4.07;3.70;;;;;;;14.90;84.73;93244.22;5018318;28;20220;-78
2022/11/21 01:53:21;;;;;;;3.77;3.47;;;;;;;14.90;84.61;93257.09;5011114;28;20275;-80
2022/11/21 01:55:48;;;;;;;4.13;3.83;;;;;;;14.89;84.67;93252.91;5011686;28;20694;-79
2022/11/21 01:58:15;;;;;;;4.23;3.83;;;;;;;14.82;84.48;93231.56;5011298;28;20541;-81
2022/11/21 02:00:46;;;;;;;4.17;3.70;;;;;;;14.89;84.67;93240.06;5012059;28;20180;-82
2022/11/21 02:03:18;;;;;;;5.43;3.73;;;;;;;14.87;84.62;93247.97;5010627;28;20648;-80
2022/11/21 02:05:46;;;;;;;5.77;3.73;;;;;;;14.81;84.43;93248.78;5011454;28;20192;-80
2022/11/21 02:08:17;;;;;;;4.50;3.50;;;;;;;14.84;84.48;93245.00;5010950;28;20682;-79
2022/11/21 02:10:52;;;;;;;5.20;3.60;;;;;;;14.87;84.35;93262.63;5011421;28;20268;-80
2022/11/21 02:13:21;;;;;;;4.83;3.63;;;;;;;14.87;84.33;93247.97;5011046;28;20690;-79
2022/11/21 02:15:48;;;;;;;4.17;3.77;;;;;;;14.87;84.39;93260.84;5012753;28;20259;-79
2022/11/21 02:18:16;;;;;;;5.43;4.30;;;;;;;14.86;84.33;93243.03;5010900;28;20184;-81
2022/11/21 02:20:51;;;;;;;3.60;3.30;;;;;;;14.74;84.30;93222.25;5026651;28;20188;-79
2022/11/21 02:23:25;;;;;;;3.73;3.43;;;;;;;14.86;84.26;93255.91;5030289;28;20206;-79
2022/11/21 02:25:54;;;;;;;3.90;3.50;;;;;;;14.87;84.27;93249.78;5030870;28;20222;-80
2022/11/21 02:28:23;;;;;;;3.90;3.43;;;;;;;14.87;84.25;93247.97;5030656;28;20184;-80
2022/11/21 02:30:50;;;;;;;5.50;3.90;;;;;;;14.83;84.15;93235.72;5030723;28;20230;-79
2022/11/21 02:33:18;;;;;;;5.47;4.10;;;;;;;14.86;83.98;93238.69;5030591;28;20188;-81
2022/11/21 02:35:45;;;;;;;5.10;3.90;;;;;;;14.83;84.01;93236.50;5030814;28;20191;-81
2022/11/21 02:38:18;;;;;;;4.83;3.10;;;;;;;14.88;84.10;93244.41;5030436;28;20199;-81
2022/11/21 02:40:53;;;;;;;4.83;3.23;;;;;;;14.85;84.06;93236.28;5030778;28;20195;-80
2022/11/21 02:43:24;;;;;;;4.40;3.00;;;;;;;14.87;84.09;93244.63;5030224;28;20199;-80
2022/11/21 02:45:51;;;;;;;5.20;3.10;;;;;;;14.90;83.98;93251.94;5030700;28;20222;-80
2022/11/21 02:48:18;;;;;;;3.97;3.20;;;;;;;14.90;83.88;93250.16;5029968;28;20647;-80
2022/11/21 02:50:47;;;;;;;5.73;3.17;;;;;;;14.91;83.84;93249.16;5029330;28;20211;-81
2022/11/21 02:53:16;;;;;;;4.73;3.67;;;;;;;14.93;83.79;93218.84;5029688;28;20207;-80
2022/11/21 02:55:43;;;;;;;4.17;3.23;;;;;;;14.96;83.67;93236.47;5010739;28;20692;-80
2022/11/21 02:58:11;;;;;;;4.50;3.37;;;;;;;14.98;83.70;93172.75;5010389;28;20199;-81
2022/11/21 03:00:41;;;;;;;3.67;2.83;;;;;;;14.93;83.64;93138.28;5015666;28;20192;-80
2022/11/21 03:03:08;;;;;;;4.67;3.17;;;;;;;14.80;83.48;93152.75;5030591;28;20188;-81
2022/11/21 03:05:36;;;;;;;3.73;2.70;;;;;;;14.99;83.13;93187.19;5030076;28;20180;-80
2022/11/21 03:08:03;;;;;;;3.20;2.50;;;;;;;14.97;83.13;93181.44;5030164;28;20196;-81
2022/11/21 03:10:30;;;;;;;4.50;2.77;;;;;;;14.98;82.97;93202.81;5030087;28;20223;-80
2022/11/21 03:13:00;;;;;;;4.50;2.47;;;;;;;15.06;82.75;93167.34;5017965;28;20188;-80
2022/11/21 03:15:28;;;;;;;3.93;2.97;;;;;;;15.10;82.68;93188.34;5013955;28;20192;-80
2022/11/21 03:17:56;;;;;;;3.70;2.67;;;;;;;15.11;82.55;93182.22;5022188;28;20627;-79
2022/11/21 03:20:23;;;;;;;4.77;2.63;;;;;;;15.14;82.52;93186.94;5027703;28;20203;-81
2022/11/21 03:22:52;;;;;;;5.50;2.73;;;;;;;15.16;82.41;93187.53;5018764;28;20192;-79
2022/11/21 03:25:19;;;;;;;8.30;2.20;;;;;;;15.14;82.24;93199.03;5015426;28;20223;-80
2022/11/21 03:27:45;;;;;;;2.87;2.60;;;;;;;15.20;82.27;93208.53;5034385;28;20192;-82
2022/11/21 03:30:14;;;;;;;3.87;2.53;;;;;;;15.14;82.06;93163.75;5034143;28;20227;-79
2022/11/21 03:32:40;;;;;;;5.10;2.67;;;;;;;15.24;82.06;93199.38;5022492;28;20250;-82
2022/11/21 03:35:09;;;;;;;3.37;2.57;;;;;;;15.24;82.27;93210.50;5015505;28;20196;-81
2022/11/21 03:37:36;;;;;;;4.67;2.30;;;;;;;15.23;82.18;93198.59;5014562;28;20203;-80
2022/11/21 03:40:03;;;;;;;2.53;2.33;;;;;;;15.26;82.06;93195.63;5014970;28;20556;-80
2022/11/21 03:42:30;;;;;;;7.37;2.53;;;;;;;15.27;81.93;93197.19;5033845;28;20195;-79
2022/11/21 03:44:57;;;;;;;3.30;2.53;;;;;;;15.28;81.98;93185.94;5034172;28;20188;-79
2022/11/21 03:47:26;;;;;;;4.93;2.33;;;;;;;15.29;81.76;93197.81;5033506;28;20187;-81
2022/11/21 03:49:53;;;;;;;2.40;2.20;;;;;;;15.30;81.52;93188.28;5033679;28;20195;-81
2022/11/21 03:52:21;;;;;;;4.20;2.30;;;;;;;15.32;81.25;93171.63;5032894;28;20648;-81
2022/11/21 03:54:47;;;;;;;3.23;2.00;;;;;;;15.29;80.81;93146.28;5032086;28;20670;-82
2022/11/21 03:57:14;;;;;;;5.03;2.20;;;;;;;15.40;80.46;93151.78;5013882;28;20560;-81
2022/11/21 03:59:41;;;;;;;3.97;2.40;;;;;;;15.43;80.20;93164.25;5013971;28;20203;-82
2022/11/21 04:02:08;;;;;;;2.43;2.20;;;;;;;15.42;80.27;93129.22;5013710;28;20199;-80
2022/11/21 04:04:35;;;;;;;4.63;2.53;;;;;;;15.49;80.10;93153.91;5014595;28;20189;-80
2022/11/21 04:07:02;;;;;;;5.57;2.03;;;;;;;15.50;79.79;93134.91;5018405;28;20588;-80
2022/11/21 04:09:30;;;;;;;4.90;2.10;;;;;;;15.55;79.54;93154.91;5016029;28;20187;-81
2022/11/21 04:11:57;;;;;;;6.37;2.10;;;;;;;15.57;79.28;93147.75;5035564;28;20215;-80
2022/11/21 04:14:24;;;;;;;4.50;2.03;;;;;;;15.61;79.10;93130.09;5034086;28;20192;-82
2022/11/21 04:16:50;;;;;;;2.87;1.60;;;;;;;15.63;78.90;93121.16;5034509;28;20616;-80
2022/11/21 04:19:17;;;;;;;3.23;1.87;;;;;;;15.67;78.37;93132.69;5033968;28;20184;-81
2022/11/21 04:21:44;;;;;;;6.30;1.90;;;;;;;15.70;78.27;93116.00;5033848;28;20184;-81
2022/11/21 04:24:11;;;;;;;2.87;2.00;;;;;;;15.74;78.17;93133.41;5032277;28;20238;-81
2022/11/21 04:26:39;;;;;;;8.13;2.43;;;;;;;15.76;78.00;93128.84;5033233;28;20196;-80
2022/11/21 04:29:06;;;;;;;3.03;1.60;;;;;;;15.78;77.47;93116.53;5039360;28;20188;-79
2022/11/21 04:31:33;;;;;;;4.20;1.87;;;;;;;15.82;77.46;93137.53;5019686;28;20228;-80
2022/11/21 04:33:59;;;;;;;5.57;2.20;;;;;;;15.84;77.28;93155.34;5014870;28;20714;-80
2022/11/21 04:36:26;;;;;;;4.40;2.00;;;;;;;15.88;77.04;93120.44;5015953;28;20188;-80
2022/11/21 04:38:53;;;;;;;3.53;2.20;;;;;;;15.92;76.86;93152.53;5014888;28;20197;-80
2022/11/21 04:41:20;;;;;;;3.43;1.90;;;;;;;15.90;76.82;93155.34;5019894;28;20215;-79
2022/11/21 04:43:55;;;;;;;5.13;1.70;;;;;;;15.80;76.44;93111.97;5022071;28;20188;-80
2022/11/21 04:46:22;;;;;;;3.27;1.80;;;;;;;16.00;76.27;93152.28;5024010;28;20755;-79
2022/11/21 04:48:49;;;;;;;3.27;2.00;;;;;;;16.01;76.41;93131.44;5025300;28;20185;-80
2022/11/21 04:51:16;;;;;;;3.10;1.70;;;;;;;16.03;76.12;93175.09;5027801;28;20584;-82
2022/11/21 04:53:43;;;;;;;5.03;2.10;;;;;;;16.03;75.70;93157.03;5013620;28;20199;-81
2022/11/21 04:56:10;;;;;;;3.87;2.00;;;;;;;16.07;75.66;93181.41;5033486;28;20571;-82
2022/11/21 04:58:37;;;;;;;3.63;1.80;;;;;;;16.08;75.44;93182.97;5032933;28;20192;-79
2022/11/21 05:01:09;;;;;;;4.97;1.83;;;;;;;16.08;75.17;93166.72;5032726;28;20191;-80
2022/11/21 05:03:36;;;;;;;5.10;1.67;;;;;;;16.12;74.87;93173.03;5032631;28;20580;-79
2022/11/21 05:06:03;;;;;;;3.27;2.03;;;;;;;16.13;75.23;93188.28;5032895;28;20581;-79
2022/11/21 05:08:30;;;;;;;3.40;2.00;;;;;;;16.15;74.84;93183.75;5030785;28;20200;-81
2022/11/21 05:13:41;;;;;;;2.70;1.80;;;;;;;16.20;74.52;93209.69;5028002;28;20199;-80
2022/11/21 05:16:10;;;;;;;2.53;1.70;;;;;;;16.17;74.43;93225.56;5021859;28;20192;-81
2022/11/21 05:18:39;;;;;;;2.57;1.77;;;;;;;16.15;73.99;93196.63;5013251;28;20192;-81
2022/11/21 05:21:06;;;;;;;2.73;1.57;;;;;;;16.11;73.81;93235.94;5013905;28;20199;-80
2022/11/21 05:23:33;;;;;;;5.90;2.03;;;;;;;16.15;73.84;93206.94;5012745;28;20188;-82
2022/11/21 05:26:00;;;;;;;4.37;1.70;;;;;;;16.15;73.49;93248.22;5012163;28;20749;-79
2022/11/21 05:28:27;;;;;;;2.30;1.70;;;;;;;16.04;73.21;93217.91;5017055;28;20217;-80
2022/11/21 05:30:54;;;;;;;5.50;1.97;;;;;;;16.11;73.20;93249.63;5021338;28;20204;-80
2022/11/21 05:33:22;;;;;;;4.10;2.30;;;;;;;16.20;72.93;93270.81;5030663;28;20602;-81
2022/11/21 05:35:49;;;;;;;4.27;2.00;;;;;;;16.16;73.11;93269.63;5031980;28;20219;-81
2022/11/21 05:38:16;;;;;;;4.77;2.00;;;;;;;16.00;73.00;93220.13;5030217;28;20187;-80
2022/11/21 05:40:43;;;;;;;3.60;1.90;;;;;;;16.07;73.12;93260.56;5032069;28;20196;-81
2022/11/21 05:45:55;;;;;;;2.10;1.73;;;;;;;16.00;73.22;93265.72;5031321;28;20221;-78
2022/11/21 05:48:24;;;;;;;3.10;1.80;;;;;;;15.94;73.01;93285.41;5024655;28;20199;-80
2022/11/21 05:50:50;;;;;;;1.97;1.53;;;;;;;15.86;72.87;93290.78;5014008;28;20234;-81
2022/11/21 05:53:18;;;;;;;5.50;1.93;;;;;;;15.73;72.73;93296.78;5018004;28;20574;-82
2022/11/21 05:55:45;;;;;;;4.03;2.00;;;;;;;15.72;72.27;93297.78;5015074;28;20192;-81
2022/11/21 05:58:12;;;;;;;3.23;1.80;;;;;;;15.65;72.25;93334.88;5026881;28;20177;-82
2022/11/21 06:00:39;;;;;;;2.70;1.60;;;;;;;15.61;72.62;93351.69;5032348;28;20239;-80
2022/11/21 06:05:52;;;;;;;2.53;1.90;;;;;;;15.47;78.13;93296.81;5023207;28;20225;-83
2022/11/21 06:08:19;;;;;;;2.40;2.20;;;;;;;15.55;76.09;93320.59;5027646;28;20192;-79
2022/11/21 06:10:45;;;;;;;6.57;2.30;;;;;;;15.62;90.34;93342.97;5036981;28;20261;-82
2022/11/21 06:13:24;;;;;;;9.53;3.03;;;;;;;15.95;100.00;93342.91;5041838;28;20188;-82
2022/11/21 06:15:53;;;;;;;8.90;2.57;;;;;;;16.51;100.00;93337.91;5039288;28;20271;-85
2022/11/21 06:18:20;;;;;;;4.07;2.57;;;;;;;16.87;100.00;93357.16;5025557;28;20191;-78
2022/11/21 06:20:47;;;;;;;6.60;2.17;;;;;;;17.03;100.00;93361.81;5021920;28;20196;-80
2022/11/21 06:23:15;;;;;;;5.87;2.13;;;;;;;16.99;98.59;93362.44;5022682;28;20196;-79
2022/11/21 06:25:43;;;;;;;5.87;2.83;;;;;;;16.88;93.77;93374.25;5030748;28;20224;-79
2022/11/21 06:28:10;;;;;;;6.77;2.40;;;;;;;16.75;89.95;93377.72;5032575;28;20199;-81
2022/11/21 06:30:37;;;;;;;3.03;1.83;;;;;;;16.55;86.29;93369.25;5031257;28;20192;-82
2022/11/21 06:33:05;;;;;;;2.90;2.20;;;;;;;16.44;83.94;93399.06;5038957;28;20180;-77
2022/11/21 06:35:32;;;;;;;1.80;1.70;;;;;;;16.30;82.46;93395.75;5028256;28;20654;-77
2022/11/21 06:37:59;;;;;;;7.63;2.33;;;;;;;16.13;81.43;93399.00;5028174;28;20202;-82
2022/11/21 06:40:27;;;;;;;2.77;1.80;;;;;;;16.02;80.63;93403.78;5024575;28;20678;-79
2022/11/21 06:42:54;;;;;;;6.33;1.80;;;;;;;15.81;79.54;93391.13;5011045;28;20192;-81
2022/11/21 06:45:21;;;;;;;6.07;2.30;;;;;;;15.76;78.96;93417.53;5011276;28;20203;-80
2022/11/21 06:47:48;;;;;;;2.37;1.90;;;;;;;15.63;78.47;93422.66;5011410;28;20188;-83
2022/11/21 06:50:15;;;;;;;1.97;1.73;;;;;;;15.52;78.13;93428.41;5010955;28;20192;-81
2022/11/21 06:52:42;;;;;;;1.67;1.57;;;;;;;15.38;78.13;93440.50;5010848;28;20228;-84
2022/11/21 06:55:10;;;;;;;4.00;1.80;;;;;;;15.25;77.99;93454.16;5011027;28;20199;-81
2022/11/21 06:57:38;;;;;;;4.67;2.30;;;;;;;15.12;77.65;93437.91;5011111;28;20203;-82
2022/11/21 07:00:06;;;;;;;2.60;1.80;;;;;;;15.07;76.93;93484.84;5011288;28;20180;-80
2022/11/21 07:02:33;;;;;;;1.97;1.87;;;;;;;14.91;76.68;93467.97;5010495;28;20212;-80
2022/11/21 07:05:00;;;;;;;1.80;1.70;;;;;;;14.84;76.72;93492.88;5024285;28;20270;-85
2022/11/21 07:07:26;;;;;;;2.13;1.80;;;;;;;14.73;77.00;93498.59;5021803;28;20181;-78
2022/11/21 07:09:53;;;;;;;2.50;1.80;;;;;;;14.63;76.90;93498.94;5028884;28;20187;-78
2022/11/21 07:15:06;;;;;;;2.20;2.00;;;;;;;14.44;77.23;93513.25;4930613;29;20289;-82
2022/11/21 07:17:32;;;;;;;2.17;1.97;;;;;;;14.31;77.71;93520.91;4932778;29;20201;-80
2022/11/21 07:19:59;;;;;;;4.27;1.90;;;;;;;14.27;77.74;93527.41;4932943;29;20199;-79
2022/11/21 07:22:26;;;;;;;2.23;2.03;;;;;;;14.20;77.73;93534.28;4935767;29;20198;-78
2022/11/21 07:24:53;;;;;;;2.47;1.63;;;;;;;14.08;77.98;93539.16;4923456;29;20254;-79
2022/11/21 07:27:20;;;;;;;2.60;2.20;;;;;;;14.05;78.08;93542.09;4916643;29;20203;-81
2022/11/21 07:29:46;;;;;;;2.00;1.80;;;;;;;13.99;77.64;93548.78;4923911;29;20203;-84
2022/11/21 07:32:15;;;;;;;3.97;1.70;;;;;;;13.92;77.28;93550.50;4931179;28;20227;-83
2022/11/21 07:34:41;;;;;;;2.47;1.93;;;;;;;13.82;77.40;93550.03;4930415;29;20191;-81
2022/11/21 07:37:08;;;;;;;1.97;1.87;;;;;;;13.65;77.74;93559.00;4931786;29;20191;-81
2022/11/21 07:39:35;;;;;;;2.13;1.93;;;;;;;13.72;77.67;93586.31;4931172;29;20810;-83
2022/11/21 07:42:02;;;;;;;2.03;1.83;;;;;;;13.64;77.96;93586.44;4932128;29;20682;-82
2022/11/21 07:44:29;;;;;;;2.33;1.93;;;;;;;13.68;78.25;93589.44;4934187;29;20195;-82
2022/11/21 07:46:56;;;;;;;2.80;1.90;;;;;;;13.63;78.09;93595.13;4926300;29;20191;-85
2022/11/21 07:49:24;;;;;;;1.80;1.70;;;;;;;13.57;78.04;93593.28;4932459;29;20944;-83
2022/11/21 07:51:54;;;;;;;2.67;2.10;;;;;;;13.58;78.12;93596.66;4964448;28;20232;-82
2022/11/21 07:54:21;;;;;;;2.50;1.90;;;;;;;13.61;78.05;93597.09;5033418;28;20659;-82
2022/11/21 07:56:47;;;;;;;2.13;1.93;;;;;;;13.61;78.09;93598.88;5034311;28;20246;-82
2022/11/21 07:59:14;;;;;;;2.70;1.97;;;;;;;13.65;77.77;93607.81;5033684;28;20195;-83
2022/11/21 08:01:41;;;;;;;2.27;2.07;;;;;;;13.66;77.66;93607.59;5033195;28;20686;-80
2022/11/21 08:04:08;;;;;;;2.13;1.90;;;;;;;13.67;77.51;93613.53;5036493;28;20202;-79
2022/11/21 08:06:36;;;;;;;1.70;1.60;;;;;;;13.65;77.18;93602.66;5035543;28;20183;-83
2022/11/21 08:09:03;;;;;;;1.63;1.53;;;;;;;13.68;77.26;93622.81;5035076;28;20186;-81
2022/11/21 08:11:31;;;;;;;2.07;1.70;;;;;;;13.60;77.02;93616.06;5032842;28;20223;-80
2022/11/21 08:13:58;;;;;;;2.07;1.93;;;;;;;13.70;76.88;93637.09;5033567;28;20247;-81
2022/11/21 08:16:26;;;;;;;2.77;1.60;;;;;;;13.70;76.72;93637.09;5037252;28;20190;-81
2022/11/21 08:18:54;;;;;;;1.80;1.70;;;;;;;13.65;76.36;93644.56;5038779;28;20188;-80
2022/11/21 08:21:21;;;;;;;1.80;1.70;;;;;;;13.68;76.37;93656.22;5032025;28;20295;-81
2022/11/21 08:23:49;;;;;;;1.60;1.50;;;;;;;14.02;100.00;93640.94;5014365;28;20203;-79
2022/11/21 08:26:17;;;;;;;1.30;1.30;;;;;;;14.41;100.00;93649.16;5013149;28;20192;-81
2022/11/21 08:28:44;;;;;;;1.60;1.50;;;;;;;14.54;97.34;93659.56;5013079;28;20193;-83
2022/11/21 08:31:11;;;;;;;3.23;1.33;;;;;;;14.59;93.50;93661.59;5012842;28;20668;-81
2022/11/21 08:33:37;;;;;;;1.40;1.30;;;;;;;14.58;90.54;93658.22;5013723;28;20195;-85
2022/11/21 08:36:05;;;;;;;1.47;1.43;;;;;;;14.41;87.86;93639.66;5027099;28;20195;-84
2022/11/21 08:38:32;;;;;;;2.30;1.70;;;;;;;14.52;85.78;93669.28;5033472;28;20206;-83
2022/11/21 08:43:44;;;;;;;1.83;1.73;;;;;;;14.32;81.86;93656.22;5034926;28;20199;-82
2022/11/21 08:46:11;;;;;;;3.63;2.20;;;;;;;14.35;81.19;93665.34;5037060;28;20204;-81
2022/11/21 08:48:38;;;;;;;2.07;1.90;;;;;;;14.32;80.60;93658.78;5038475;28;20224;-81
2022/11/21 08:51:05;;;;;;;2.53;2.33;;;;;;;14.30;80.11;93658.19;5020172;28;20180;-85
2022/11/21 08:53:32;;;;;;;1.77;1.67;;;;;;;14.30;79.87;93663.34;5031786;28;20235;-84
2022/11/21 08:56:00;;;;;;;2.70;2.13;;;;;;;14.20;79.48;93655.13;5034631;28;20206;-84
2022/11/21 08:58:27;;;;;;;2.20;2.00;;;;;;;14.25;79.19;93663.09;5042205;28;20207;-84
2022/11/21 09:00:54;;;;;;;2.30;2.10;;;;;;;14.28;78.90;93666.06;5048824;28;20214;-81
2022/11/21 09:03:21;;;;;;;2.40;2.20;;;;;;;14.27;78.63;93667.06;5037137;28;20206;-85
2022/11/21 09:05:48;;;;;;;2.47;2.27;;;;;;;14.31;78.42;93673.44;5032200;28;20190;-84
2022/11/21 09:08:14;;;;;;;4.13;2.43;;;;;;;14.34;78.28;93671.47;5030137;28;20659;-83
2022/11/21 09:10:41;;;;;;;3.20;2.67;;;;;;;14.17;78.22;93653.75;5032316;28;20671;-84
2022/11/21 09:13:09;;;;;;;4.10;2.80;;;;;;;14.34;78.14;93679.19;5032009;28;20223;-80
2022/11/21 09:18:20;;;;;;;3.77;2.87;;;;;;;14.30;77.60;93689.84;5030533;28;20686;-84
2022/11/21 09:20:47;;;;;;;4.10;2.90;;;;;;;14.27;77.52;93700.50;5031499;28;20279;-81
2022/11/21 09:23:17;;;;;;;3.10;2.80;;;;;;;14.20;77.29;93686.78;5031840;28;20199;-83
2022/11/21 09:25:44;;;;;;;3.30;3.00;;;;;;;14.21;76.99;93692.75;5032311;28;20231;-85
2022/11/21 09:28:13;;;;;;;4.07;2.77;;;;;;;14.14;76.85;93684.94;5031526;28;20659;-84
2022/11/21 09:30:41;;;;;;;3.33;3.03;;;;;;;14.10;76.64;93683.72;5030733;28;20188;-85
2022/11/21 09:33:11;;;;;;;3.03;2.80;;;;;;;14.03;76.00;93688.00;5031310;28;20230;-87
2022/11/21 09:35:38;;;;;;;3.07;2.80;;;;;;;14.02;75.94;93692.34;5032093;28;20329;-84
2022/11/21 09:38:06;;;;;;;4.13;3.13;;;;;;;13.95;75.98;93691.50;5031294;28;20188;-84
2022/11/21 09:40:34;;;;;;;3.27;2.83;;;;;;;13.93;75.65;93708.88;5030722;28;20195;-80
2022/11/21 09:43:24;;;;;;;3.03;2.73;;;;;;;13.89;75.51;93701.72;5032743;28;20199;-85
2022/11/21 09:45:52;;;;;;;3.13;2.63;;;;;;;13.81;75.30;93689.75;5032494;28;20222;-85
2022/11/21 09:48:27;;;;;;;2.87;2.53;;;;;;;13.83;75.10;93685.25;5031757;28;20191;-86
2022/11/21 09:50:57;;;;;;;3.53;2.83;;;;;;;13.83;74.94;93694.75;5034272;28;20298;-85
2022/11/21 09:53:28;;;;;;;3.83;2.87;;;;;;;13.78;74.99;93697.84;5032920;28;20219;-83
2022/11/21 09:55:59;;;;;;;3.63;2.60;;;;;;;13.78;74.63;93710.69;5031751;28;20199;-82
2022/11/21 09:58:32;;;;;;;2.67;2.47;;;;;;;13.56;74.41;93697.03;5031728;28;20205;-84
2022/11/21 10:00:59;;;;;;;3.70;2.70;;;;;;;13.71;74.47;93709.81;5032029;28;20204;-84
2022/11/21 10:03:29;;;;;;;5.90;2.80;;;;;;;13.70;74.50;93711.59;5029950;28;20184;-85
2022/11/21 10:06:04;;;;;;;4.03;2.70;;;;;;;13.67;74.11;93722.22;5031824;28;20187;-84
2022/11/21 10:08:41;;;;;;;4.27;2.73;;;;;;;13.65;74.45;93719.06;5028201;28;20305;-84
2022/11/21 10:11:18;;;;;;;4.90;2.67;;;;;;;13.58;74.42;93720.75;5029919;28;20659;-83
2022/11/21 10:14:06;;;;;;;3.33;2.70;;;;;;;13.55;74.56;93724.44;5030020;28;20650;-85
2022/11/21 10:16:44;;;;;;;2.87;2.60;;;;;;;13.40;74.27;93708.28;5027839;28;20192;-84
2022/11/21 10:19:42;;;;;;;6.80;3.30;;;;;;;13.45;74.31;93723.94;5030597;28;20199;-82
2022/11/21 10:22:41;;;;;;;4.33;2.93;;;;;;;13.42;74.18;93734.56;5031386;28;20203;-83
2022/11/21 10:25:14;;;;;;;3.53;2.60;;;;;;;13.42;73.98;93739.69;5022215;28;20224;-83
2022/11/21 10:27:49;;;;;;;6.77;2.83;;;;;;;13.41;73.93;93737.31;5013082;28;20196;-81
2022/11/21 10:30:19;;;;;;;4.13;3.10;;;;;;;13.19;74.27;93711.53;5007931;28;20215;-81
2022/11/21 10:32:48;;;;;;;4.17;2.60;;;;;;;13.37;73.91;93741.22;5010783;28;20216;-82
2022/11/21 10:35:19;;;;;;;2.73;2.53;;;;;;;13.36;73.70;93731.94;5026759;28;20192;-80
2022/11/21 10:37:50;;;;;;;3.07;2.80;;;;;;;13.34;73.42;93734.66;5027379;28;20191;-81
2022/11/21 10:40:30;;;;;;;1.33;1.30;;;;;;;13.43;93.83;93725.91;5021918;28;20203;-83
2022/11/21 10:45:14;;;;;;;1.90;1.80;;;;;;;14.01;100.00;93724.19;5010658;28;20199;-82
2022/11/21 10:45:48;;;;;;;3.07;2.87;;;;;;;14.58;100.00;93732.03;5026031;28;20218;-82
2022/11/21 10:48:15;;;;;;;2.57;2.37;;;;;;;14.74;100.00;93735.16;5022881;28;20200;-82
2022/11/21 10:50:53;;;;;;;3.73;3.03;;;;;;;14.72;97.41;93729.41;5019270;28;20184;-80
2022/11/21 10:56:09;;;;;;;2.77;2.50;;;;;;;14.46;89.27;93714.50;5021846;28;20240;-83
2022/11/21 10:58:42;;;;;;;3.13;2.47;;;;;;;14.50;86.48;93735.53;5015048;28;20187;-79
2022/11/21 11:01:22;;;;;;;2.73;2.50;;;;;;;14.43;84.30;93734.66;5010820;28;20180;-76
2022/11/21 11:04:05;;;;;;;4.10;2.50;;;;;;;14.32;82.46;93752.16;5033645;28;20191;-78
2022/11/21 11:06:32;;;;;;;3.63;2.63;;;;;;;14.24;81.57;93751.50;5018469;28;20367;-82
2022/11/21 11:08:59;;;;;;;4.33;2.37;;;;;;;14.16;80.97;93752.44;5016113;28;20194;-79
2022/11/21 11:11:26;;;;;;;2.47;2.27;;;;;;;13.96;80.25;93736.78;5014425;28;20187;-80
2022/11/21 11:13:58;;;;;;;3.23;2.63;;;;;;;14.00;79.85;93756.00;5016816;28;20311;-81
2022/11/21 11:16:28;;;;;;;3.27;2.63;;;;;;;13.94;79.74;93761.84;5025720;28;20199;-82
2022/11/21 11:19:00;;;;;;;3.00;2.73;;;;;;;13.75;79.58;93731.59;5022565;28;20191;-79
2022/11/21 11:21:29;;;;;;;3.17;2.70;;;;;;;13.81;79.25;93746.28;5012660;28;20212;-80
2022/11/21 11:24:20;;;;;;;3.33;2.47;;;;;;;13.76;79.03;93743.47;5017511;28;20207;-79
2022/11/21 11:26:52;;;;;;;2.73;2.47;;;;;;;13.66;78.89;93735.25;5016969;28;20230;-79
2022/11/21 11:29:20;;;;;;;3.33;2.93;;;;;;;13.69;78.93;93742.63;5009317;28;20211;-81
2022/11/21 11:31:55;;;;;;;6.23;3.30;;;;;;;13.65;78.91;93749.09;5017765;28;20577;-81
2022/11/21 11:34:23;;;;;;;3.03;2.70;;;;;;;13.59;78.86;93740.31;5018748;28;20230;-82
2022/11/21 11:37:10;;;;;;;5.00;3.20;;;;;;;13.56;78.87;93743.25;5030293;28;20190;-80
2022/11/21 11:39:40;;;;;;;3.43;3.10;;;;;;;13.43;78.62;93719.97;5027871;28;20207;-78
2022/11/21 11:48:38;;;;;;;3.17;2.83;;;;;;;13.46;78.18;93738.38;5021975;28;20207;-78
2022/11/21 11:51:13;;;;;;;4.13;3.40;;;;;;;13.29;78.19;93719.78;5020839;28;20192;-79
2022/11/21 11:53:45;;;;;;;5.03;3.70;;;;;;;13.36;78.05;93724.22;5019620;28;20246;-79
2022/11/21 11:56:17;;;;;;;3.77;3.37;;;;;;;13.11;77.61;93691.09;5016812;28;20619;-81
2022/11/21 11:58:48;;;;;;;4.30;3.50;;;;;;;13.39;77.28;93731.59;5018477;28;20192;-81
2022/11/21 12:01:19;;;;;;;4.70;3.50;;;;;;;13.37;76.98;93731.75;5014090;28;20193;-80
2022/11/21 12:03:58;;;;;;;8.83;3.43;;;;;;;13.33;76.49;93729.72;5032372;28;20185;-80
2022/11/21 12:06:26;;;;;;;5.77;3.50;;;;;;;13.37;76.38;93741.22;5024708;28;20200;-81
2022/11/21 12:08:55;;;;;;;5.43;4.10;;;;;;;13.25;76.10;93720.31;5022298;28;20202;-81